Abbott, Pennsylvania
Current Conditions -  °F | °C
As of 8:15 PM on Tuesday 21 Oct 2014 (Local Time) from KN38 Reporting Station
Broken Clouds Broken Clouds  
Wind Chill: 45°   Ceiling: 1500
Heat Index: 48°   Visibility: 7mi
Dew Point: 46°   Wind: 7mph
Humidity: 93%   Direction: 350°N
Pressure: 29.94"   Gusts: NA
Location:  41.6755°N, 77.7071°W
Report Text: KN38 220015Z AUTO 35006KT 7SM BKN015 BKN030 BKN050 09/08 A2994 RMK AO2
Loading
Personal Weather Stations






























Interactive Weather Map New forecast layout! Learn more

10-Day Weather Forecast

Advertisements
Track Severe Weather on mobile